You are not logged in, Click here to log in
機場資訊:LEBL Welcome to Taiwan Airways 台灣虛擬航空
ICAO: LEBL Country: 西班牙第二大城市巴塞隆納的聯外國際機場,乃西班牙僅次於馬德里-巴拉哈斯機場的第二大機場,也是加泰隆尼
Latitude: 41.2969 Longitude: 2.07833
Total Arrivals: 5 Total Departures: 6
Latest Arrival: VY6109 (LIRF-LEBL)Arthur. Kung Latest Departure: SU1149 (LEBL-LFPG)Arthur. Kung
Scenery:
METAR : LEBL 141800Z 06006KT 8000 FEW010 SCT040 22/21 Q1011 NOSIG

巴塞羅那-埃爾普拉特機場BCN